Time;durP1;ratioP1;P1;durP2;ratioP2;P2;SDS_P1;SDS_P2;PMS_P1;PMS_P2;Temp;Humidity;BMP_temperature;BMP_pressure;BME280_temperature;BME280_humidity;BME280_pressure;Samples;Min_cycle;Max_cycle;Signal;HPM_P1;HPM_P2
2021/01/15 00:01:36;;;;;;;16.75;9.52;;;-3.80;81.20;;;;;;5067231;28;20021;-72
2021/01/15 00:04:02;;;;;;;16.85;9.77;;;-3.80;80.10;;;;;;5066915;28;20481;-73
2021/01/15 00:06:28;;;;;;;15.13;9.45;;;-3.90;80.60;;;;;;5069338;28;20037;-72
2021/01/15 00:08:54;;;;;;;15.82;8.82;;;-3.90;80.00;;;;;;5074124;28;20036;-73
2021/01/15 00:11:22;;;;;;;19.58;10.70;;;-3.90;80.40;;;;;;5073881;28;20039;-73
2021/01/15 00:13:48;;;;;;;15.57;9.25;;;-3.90;80.90;;;;;;5073338;28;20113;-73
2021/01/15 00:16:36;;;;;;;18.80;9.38;;;-3.90;80.10;;;;;;5074348;28;20021;-72
2021/01/15 00:19:02;;;;;;;16.98;8.57;;;-4.00;80.00;;;;;;5071452;28;20472;-72
2021/01/15 00:21:33;;;;;;;15.60;9.85;;;-4.20;79.40;;;;;;5075892;28;20103;-72
2021/01/15 00:24:04;;;;;;;15.15;8.27;;;-4.30;80.30;;;;;;5069988;28;20469;-72
2021/01/15 00:26:31;;;;;;;19.88;9.07;;;-4.30;80.70;;;;;;5070988;28;20078;-72
2021/01/15 00:28:57;;;;;;;16.98;8.70;;;-4.50;80.40;;;;;;5073812;28;20058;-72
2021/01/15 00:31:37;;;;;;;18.50;10.02;;;-4.60;80.30;;;;;;5071947;28;20067;-73
2021/01/15 00:34:04;;;;;;;17.30;9.70;;;-4.60;80.40;;;;;;5072938;28;20035;-73
2021/01/15 00:36:30;;;;;;;17.35;10.20;;;-4.60;79.90;;;;;;5075572;28;20031;-72
2021/01/15 00:38:56;;;;;;;15.55;8.88;;;-4.70;80.50;;;;;;5069779;28;20033;-72
2021/01/15 00:41:22;;;;;;;15.70;9.20;;;-4.80;80.70;;;;;;5067285;28;20032;-72
2021/01/15 00:43:48;;;;;;;20.23;9.35;;;-4.90;80.30;;;;;;5066326;28;20033;-72
2021/01/15 00:46:27;;;;;;;17.08;9.73;;;-5.00;80.80;;;;;;5062796;28;20036;-72
2021/01/15 00:49:01;;;;;;;18.02;10.10;;;-5.20;80.60;;;;;;5083829;28;20112;-72
2021/01/15 00:51:27;;;;;;;17.00;9.88;;;-5.30;80.90;;;;;;5069160;28;20397;-71
2021/01/15 00:53:52;;;;;;;17.80;10.45;;;-5.30;81.10;;;;;;5072258;28;20062;-72
2021/01/15 00:56:22;;;;;;;20.40;10.85;;;-5.30;81.10;;;;;;5070003;28;20334;-71
2021/01/15 00:58:49;;;;;;;18.17;10.15;;;-5.50;81.10;;;;;;5071606;28;20024;-72
2021/01/15 01:01:19;;;;;;;17.90;10.02;;;-5.40;81.20;;;;;;5070944;28;20033;-71
2021/01/15 01:03:45;;;;;;;23.52;11.25;;;-5.50;81.20;;;;;;5073758;28;20105;-70
2021/01/15 01:06:16;;;;;;;17.83;10.35;;;-5.60;82.00;;;;;;5071545;28;20135;-72
2021/01/15 01:08:43;;;;;;;19.85;9.48;;;-5.60;82.10;;;;;;5071316;28;20112;-71
2021/01/15 01:11:15;;;;;;;17.25;9.90;;;-5.70;81.80;;;;;;5062182;28;20032;-70
2021/01/15 01:13:41;;;;;;;21.50;11.05;;;-5.80;82.30;;;;;;5066605;28;20112;-70
2021/01/15 01:16:07;;;;;;;21.83;10.95;;;-5.80;82.90;;;;;;5070359;28;20028;-70
2021/01/15 01:18:34;;;;;;;16.77;10.23;;;-5.80;83.10;;;;;;5068005;28;20495;-70
2021/01/15 01:21:01;;;;;;;22.40;10.68;;;-5.90;82.70;;;;;;5070251;28;20516;-69
2021/01/15 01:23:27;;;;;;;18.15;10.57;;;-6.00;82.40;;;;;;5070222;28;20093;-69
2021/01/15 01:25:52;;;;;;;21.48;10.38;;;-5.90;82.30;;;;;;5070462;28;20392;-69
2021/01/15 01:28:19;;;;;;;16.58;9.40;;;-6.00;81.90;;;;;;5070787;28;20031;-70
2021/01/15 01:30:45;;;;;;;18.73;10.02;;;-6.10;81.60;;;;;;5073011;28;20082;-69
2021/01/15 01:33:11;;;;;;;19.83;9.90;;;-6.20;81.60;;;;;;5070198;28;20049;-71
2021/01/15 01:35:36;;;;;;;18.38;9.38;;;-6.30;81.20;;;;;;5069593;28;20020;-71
2021/01/15 01:38:02;;;;;;;18.17;10.68;;;-6.30;82.10;;;;;;5070537;28;20095;-71
2021/01/15 01:40:28;;;;;;;16.83;9.55;;;-6.30;82.00;;;;;;5068551;28;20037;-70
2021/01/15 02:00:01;;;;;;;17.52;8.60;;;-6.30;81.10;;;;;;4732674;30;20471;-70
2021/01/15 02:02:27;;;;;;;17.83;10.15;;;-6.30;81.50;;;;;;4737422;30;20043;-72
2021/01/15 02:04:53;;;;;;;17.00;9.68;;;-6.30;82.00;;;;;;4739265;30;20044;-70
2021/01/15 02:07:19;;;;;;;17.98;9.40;;;-6.30;82.00;;;;;;4742681;30;20091;-70
2021/01/15 02:10:02;;;;;;;18.50;10.68;;;-6.20;81.70;;;;;;4735022;30;20048;-69
2021/01/15 02:12:46;;;;;;;22.00;10.63;;;-6.20;81.20;;;;;;4739020;30;20048;-69
2021/01/15 02:15:15;;;;;;;21.42;10.85;;;-6.20;82.00;;;;;;4732688;30;20083;-69
2021/01/15 02:17:58;;;;;;;19.63;10.07;;;-6.10;82.00;;;;;;4733031;30;20048;-69
2021/01/15 02:20:37;;;;;;;19.17;9.65;;;-6.10;82.10;;;;;;4735198;30;20044;-70
2021/01/15 02:23:17;;;;;;;17.85;9.25;;;-6.00;82.20;;;;;;4738067;30;20049;-69
2021/01/15 02:26:04;;;;;;;13.82;8.32;;;-6.00;82.60;;;;;;4728803;30;20617;-69
2021/01/15 02:28:48;;;;;;;17.98;9.55;;;-6.00;81.20;;;;;;4756103;30;20044;-69
2021/01/15 02:31:28;;;;;;;22.67;9.98;;;-5.90;82.00;;;;;;4806502;29;20102;-69
2021/01/15 02:34:18;;;;;;;14.13;8.30;;;-5.90;81.30;;;;;;4869874;29;20041;-72
2021/01/15 02:37:07;;;;;;;21.05;9.93;;;-6.00;81.50;;;;;;4970314;28;20097;-70
2021/01/15 02:39:50;;;;;;;19.75;9.25;;;-6.00;82.40;;;;;;5069087;28;20045;-71
2021/01/15 02:42:17;;;;;;;20.30;9.90;;;-6.00;82.10;;;;;;5067773;28;20077;-71
2021/01/15 02:44:48;;;;;;;19.38;9.05;;;-6.00;82.00;;;;;;5070838;28;20032;-71
2021/01/15 02:47:23;;;;;;;18.05;8.98;;;-5.90;82.00;;;;;;5069109;28;20107;-71
2021/01/15 02:49:55;;;;;;;15.25;8.52;;;-6.00;81.90;;;;;;5069450;28;20035;-71
2021/01/15 02:52:21;;;;;;;19.00;8.70;;;-6.00;81.90;;;;;;5070613;28;20056;-72
2021/01/15 02:54:47;;;;;;;17.77;9.73;;;-6.00;81.90;;;;;;5071843;28;20081;-71
2021/01/15 02:57:13;;;;;;;17.80;8.63;;;-6.00;82.10;;;;;;5069740;28;20378;-70
2021/01/15 02:59:39;;;;;;;16.90;8.23;;;-5.90;82.40;;;;;;5071001;28;20119;-70
2021/01/15 03:02:15;;;;;;;16.88;9.02;;;-5.90;82.20;;;;;;5070614;28;20120;-70
2021/01/15 03:05:05;;;;;;;16.77;8.60;;;-5.90;82.90;;;;;;5070067;28;20028;-71
2021/01/15 03:07:31;;;;;;;15.87;9.17;;;-5.90;82.90;;;;;;5070337;28;20073;-69
2021/01/15 03:10:04;;;;;;;16.85;9.00;;;-5.90;82.50;;;;;;5072481;28;20408;-70
2021/01/15 03:12:31;;;;;;;17.88;8.43;;;-6.00;83.10;;;;;;5070866;28;20047;-72
2021/01/15 03:14:58;;;;;;;21.25;10.07;;;-5.90;83.30;;;;;;5070105;28;20139;-72
2021/01/15 03:17:32;;;;;;;19.20;9.48;;;-5.90;83.30;;;;;;5069470;28;20047;-72
2021/01/15 03:19:59;;;;;;;20.65;9.82;;;-6.00;83.60;;;;;;5064963;28;20097;-72
2021/01/15 03:22:26;;;;;;;21.45;10.00;;;-5.90;83.30;;;;;;5070116;28;20055;-72
2021/01/15 03:24:56;;;;;;;21.45;9.38;;;-5.80;83.50;;;;;;5072075;28;20067;-72
2021/01/15 03:27:23;;;;;;;21.25;9.98;;;-5.80;84.00;;;;;;5068875;28;20431;-71
2021/01/15 03:29:50;;;;;;;18.25;9.07;;;-5.70;83.40;;;;;;5070518;28;20028;-71
2021/01/15 03:32:16;;;;;;;19.63;9.27;;;-5.70;82.70;;;;;;5069644;28;20045;-72
2021/01/15 03:34:42;;;;;;;20.92;9.82;;;-5.80;83.10;;;;;;5069991;28;20823;-71
2021/01/15 03:37:07;;;;;;;17.83;8.45;;;-5.70;83.40;;;;;;5071305;28;20110;-72
2021/01/15 03:39:34;;;;;;;20.77;9.65;;;-5.70;83.90;;;;;;5070430;28;20072;-71
2021/01/15 03:42:00;;;;;;;18.17;8.95;;;-5.70;83.40;;;;;;5069859;28;20085;-72
2021/01/15 03:44:26;;;;;;;15.63;8.85;;;-5.70;83.10;;;;;;5069724;28;20017;-72
2021/01/15 03:46:55;;;;;;;17.42;8.93;;;-5.60;84.20;;;;;;5070249;28;20032;-72
2021/01/15 03:49:22;;;;;;;15.38;8.25;;;-5.50;83.90;;;;;;5069998;28;20033;-72
2021/01/15 03:51:48;;;;;;;17.13;8.88;;;-5.50;83.70;;;;;;5069887;28;20009;-72
2021/01/15 03:54:14;;;;;;;17.60;8.93;;;-5.50;83.60;;;;;;5070165;28;20046;-71
2021/01/15 03:56:41;;;;;;;17.85;9.13;;;-5.40;83.70;;;;;;5068390;28;20119;-71
2021/01/15 03:59:06;;;;;;;18.02;9.07;;;-5.30;82.80;;;;;;5068163;28;20044;-71
2021/01/15 04:01:34;;;;;;;20.30;8.98;;;-5.40;83.50;;;;;;5066962;28;20506;-74
2021/01/15 04:04:00;;;;;;;16.65;8.75;;;-5.30;82.60;;;;;;5071871;28;20545;-71
2021/01/15 04:06:26;;;;;;;23.02;10.05;;;-5.30;83.00;;;;;;5067615;28;20028;-72
2021/01/15 04:08:52;;;;;;;18.08;9.23;;;-5.40;82.20;;;;;;5067923;28;20519;-72
2021/01/15 04:11:21;;;;;;;17.83;8.68;;;-5.30;83.10;;;;;;5067128;28;20033;-72
2021/01/15 04:13:46;;;;;;;17.40;9.43;;;-5.30;83.30;;;;;;5067583;28;20417;-71
2021/01/15 04:16:14;;;;;;;17.77;9.43;;;-5.30;82.60;;;;;;5069298;28;20040;-72
2021/01/15 04:18:40;;;;;;;15.45;8.85;;;-5.30;83.50;;;;;;5069690;28;20025;-72
2021/01/15 04:21:07;;;;;;;20.67;9.88;;;-5.30;82.60;;;;;;5067727;28;20024;-71
2021/01/15 04:23:33;;;;;;;15.05;8.60;;;-5.30;82.80;;;;;;5067626;28;20040;-71
2021/01/15 04:25:59;;;;;;;21.33;9.60;;;-5.30;83.00;;;;;;5066321;28;20062;-70
2021/01/15 04:28:25;;;;;;;19.63;10.30;;;-5.30;82.70;;;;;;5066875;28;20415;-70
2021/01/15 04:30:51;;;;;;;20.73;10.10;;;-5.30;82.50;;;;;;5071115;28;20099;-70
2021/01/15 04:33:17;;;;;;;20.67;10.98;;;-5.30;82.00;;;;;;5068813;28;20051;-70
2021/01/15 04:35:42;;;;;;;21.35;10.02;;;-5.30;82.20;;;;;;5066922;28;20029;-71
2021/01/15 04:38:08;;;;;;;21.98;10.43;;;-5.30;82.90;;;;;;5066889;28;20025;-71
2021/01/15 04:40:34;;;;;;;21.33;11.55;;;-5.30;83.10;;;;;;5066432;28;20457;-70
2021/01/15 04:43:05;;;;;;;15.25;9.48;;;-5.30;83.30;;;;;;5070484;28;20009;-71
2021/01/15 04:45:30;;;;;;;;;;;-5.30;83.30;;;;;;5068067;28;20062;-70
2021/01/15 04:47:57;;;;;;;23.77;11.13;;;-5.40;83.10;;;;;;5068166;28;19912;-71
2021/01/15 04:50:23;;;;;;;21.35;10.77;;;-5.40;83.80;;;;;;5067126;28;20070;-71
2021/01/15 04:52:51;;;;;;;21.05;10.85;;;-5.40;84.00;;;;;;5069738;28;20358;-71
2021/01/15 04:55:19;;;;;;;20.48;11.43;;;-5.50;83.50;;;;;;5071649;28;20054;-71
2021/01/15 04:57:49;;;;;;;17.50;10.18;;;-5.60;83.90;;;;;;5073645;28;20039;-70
2021/01/15 05:00:20;;;;;;;19.23;10.93;;;-5.50;84.90;;;;;;5071125;28;20023;-70
2021/01/15 05:02:47;;;;;;;20.50;11.32;;;-5.40;84.90;;;;;;5071111;28;20082;-70
2021/01/15 05:05:42;;;;;;;21.75;11.10;;;-5.30;84.10;;;;;;5071222;28;20080;-70
2021/01/15 05:08:08;;;;;;;25.25;11.48;;;-5.30;84.20;;;;;;5066225;28;20040;-71
2021/01/15 05:10:38;;;;;;;18.95;9.75;;;-5.30;83.30;;;;;;5070864;28;20025;-71
2021/01/15 05:13:07;;;;;;;24.23;11.75;;;-5.30;83.10;;;;;;5072152;28;20033;-73
2021/01/15 05:15:33;;;;;;;20.58;11.65;;;-5.20;83.50;;;;;;5071610;28;20084;-72
2021/01/15 05:18:00;;;;;;;26.65;11.20;;;-5.20;83.60;;;;;;5070266;28;20047;-72
2021/01/15 05:20:29;;;;;;;25.85;12.65;;;-5.20;83.10;;;;;;5071562;28;20039;-73
2021/01/15 05:23:02;;;;;;;27.67;14.05;;;-5.20;83.20;;;;;;5073235;28;20376;-72
2021/01/15 05:25:30;;;;;;;23.92;12.45;;;-5.20;84.10;;;;;;5071612;28;20025;-72
2021/01/15 05:27:55;;;;;;;33.42;13.82;;;-5.20;82.90;;;;;;5073937;28;20115;-72
2021/01/15 05:30:23;;;;;;;24.73;12.25;;;-5.20;82.60;;;;;;5070657;28;20111;-73
2021/01/15 05:32:59;;;;;;;21.67;11.20;;;-5.20;83.60;;;;;;5064875;28;20032;-73
2021/01/15 05:35:46;;;;;;;22.52;11.05;;;-5.30;82.90;;;;;;5069842;28;20048;-73
2021/01/15 05:38:15;;;;;;;25.05;11.05;;;-5.30;83.80;;;;;;5070426;28;20024;-72
2021/01/15 05:40:44;;;;;;;19.77;10.40;;;-5.30;82.40;;;;;;5069760;28;20059;-71
2021/01/15 05:43:27;;;;;;;20.90;10.93;;;-5.20;82.40;;;;;;5068246;28;20060;-71
2021/01/15 05:46:20;;;;;;;18.80;9.95;;;-5.30;82.80;;;;;;5072397;28;20028;-72
2021/01/15 05:48:48;;;;;;;20.05;10.13;;;-5.40;82.80;;;;;;5071474;28;20052;-74
2021/01/15 05:51:33;;;;;;;18.45;10.35;;;-5.40;83.10;;;;;;5069782;28;20029;-74
2021/01/15 05:54:01;;;;;;;24.35;11.05;;;-5.30;83.10;;;;;;5067055;28;20087;-73
2021/01/15 05:56:40;;;;;;;21.65;10.82;;;-5.40;83.40;;;;;;5068990;28;20115;-72
2021/01/15 05:59:07;;;;;;;22.33;10.27;;;-5.40;83.50;;;;;;5070572;28;20477;-72
2021/01/15 06:01:46;;;;;;;21.33;10.93;;;-5.40;82.80;;;;;;5068346;28;20057;-75
2021/01/15 06:04:14;;;;;;;20.20;11.45;;;-5.40;83.60;;;;;;5068675;28;20032;-74
2021/01/15 06:06:40;;;;;;;25.55;12.43;;;-5.40;83.20;;;;;;5071565;28;20078;-74
2021/01/15 06:09:08;;;;;;;22.95;10.70;;;-5.50;82.90;;;;;;5069660;28;20025;-72
2021/01/15 06:11:34;;;;;;;21.38;11.18;;;-5.50;83.30;;;;;;5069007;28;20053;-74
2021/01/15 06:14:01;;;;;;;26.40;12.25;;;-5.50;83.90;;;;;;5069969;28;20096;-72
2021/01/15 06:16:26;;;;;;;25.65;13.13;;;-5.50;84.50;;;;;;5067442;28;20048;-72
2021/01/15 06:18:57;;;;;;;25.92;13.10;;;-5.50;83.90;;;;;;5072816;28;20384;-71
2021/01/15 06:21:33;;;;;;;30.00;14.50;;;-5.50;84.70;;;;;;5068516;28;20503;-72
2021/01/15 06:24:03;;;;;;;25.83;14.05;;;-5.40;85.20;;;;;;5068965;28;20017;-72
2021/01/15 06:26:37;;;;;;;35.50;16.50;;;-5.30;83.90;;;;;;5067707;28;20028;-72
2021/01/15 06:29:08;;;;;;;36.30;18.05;;;-5.30;82.80;;;;;;5069479;28;20025;-72
2021/01/15 06:31:51;;;;;;;34.78;17.02;;;-5.30;83.10;;;;;;5070418;28;20478;-72
2021/01/15 06:34:18;;;;;;;33.33;15.45;;;-5.40;83.90;;;;;;5069448;28;20032;-72
2021/01/15 06:36:54;;;;;;;26.92;11.88;;;-5.40;83.30;;;;;;5071949;28;20107;-73
2021/01/15 06:39:21;;;;;;;29.33;13.75;;;-5.40;82.60;;;;;;5068997;28;20061;-72
2021/01/15 06:41:59;;;;;;;33.35;14.85;;;-5.40;83.50;;;;;;5067943;28;20024;-72
2021/01/15 06:44:25;;;;;;;34.17;15.32;;;-5.40;83.80;;;;;;5067515;28;20166;-72
2021/01/15 06:46:54;;;;;;;30.77;15.07;;;-5.40;85.10;;;;;;5066258;28;20032;-72
2021/01/15 06:49:29;;;;;;;36.20;15.77;;;-5.30;84.00;;;;;;5071001;28;20025;-72
2021/01/15 06:51:57;;;;;;;37.42;16.98;;;-5.20;83.60;;;;;;5071326;28;20020;-73
2021/01/15 06:54:34;;;;;;;34.45;15.68;;;-5.20;83.60;;;;;;5071368;28;20037;-72
2021/01/15 06:57:28;;;;;;;32.28;15.18;;;-5.20;84.00;;;;;;5070129;28;20471;-73
2021/01/15 06:59:58;;;;;;;35.38;16.80;;;-5.10;84.30;;;;;;5069168;28;20101;-74
2021/01/15 07:03:19;;;;;;;39.60;16.38;;;-5.00;83.80;;;;;;5069543;28;20025;-75
2021/01/15 07:05:46;;;;;;;29.15;15.05;;;-5.10;83.70;;;;;;5048432;28;20487;-74
2021/01/15 07:08:13;;;;;;;34.67;15.98;;;-5.10;83.60;;;;;;5049303;28;20032;-74
2021/01/15 07:10:39;;;;;;;30.85;15.70;;;-5.00;83.90;;;;;;5048387;28;20098;-74
2021/01/15 07:13:10;;;;;;;27.38;12.68;;;-5.00;84.40;;;;;;5050285;28;20505;-73
2021/01/15 07:15:42;;;;;;;27.80;12.88;;;-4.90;83.40;;;;;;5049844;28;20032;-73
2021/01/15 07:18:33;;;;;;;22.45;12.18;;;-4.90;84.20;;;;;;5048613;28;20025;-73
2021/01/15 07:21:08;;;;;;;24.60;13.05;;;-4.80;83.70;;;;;;5038486;28;20124;-73
2021/01/15 07:23:53;;;;;;;24.23;12.80;;;-4.80;82.90;;;;;;5047907;28;20059;-73
2021/01/15 07:26:19;;;;;;;28.35;13.55;;;-4.80;83.70;;;;;;5046834;28;20135;-73
2021/01/15 07:28:47;;;;;;;27.88;13.90;;;-4.70;83.20;;;;;;5046961;28;20567;-73
2021/01/15 07:31:25;;;;;;;25.25;13.52;;;-4.70;83.50;;;;;;5047464;28;20378;-74
2021/01/15 07:33:58;;;;;;;23.88;12.43;;;-4.70;82.90;;;;;;5047214;28;21337;-73
2021/01/15 07:36:34;;;;;;;29.58;13.75;;;-4.60;83.10;;;;;;5047124;28;20049;-73
2021/01/15 07:39:13;;;;;;;28.13;13.73;;;-4.60;82.50;;;;;;5052318;28;20032;-72
2021/01/15 07:41:48;;;;;;;29.55;13.73;;;-4.50;82.30;;;;;;5066476;28;20060;-73
2021/01/15 07:44:23;;;;;;;27.63;12.95;;;-4.50;82.40;;;;;;5068400;28;20025;-73
2021/01/15 07:46:52;;;;;;;28.63;14.10;;;-4.50;81.90;;;;;;5061338;28;20024;-73
2021/01/15 07:49:18;;;;;;;26.42;12.35;;;-4.50;82.00;;;;;;5070461;28;20032;-71
2021/01/15 07:52:04;;;;;;;26.45;12.68;;;-4.40;82.30;;;;;;5068820;28;20017;-72
2021/01/15 07:54:49;;;;;;;24.08;11.35;;;-4.40;81.50;;;;;;5065172;28;20078;-72
2021/01/15 07:57:19;;;;;;;23.98;11.15;;;-4.40;81.30;;;;;;5066822;28;20058;-72
2021/01/15 07:59:45;;;;;;;23.98;11.27;;;-4.30;80.80;;;;;;5067586;28;20469;-72
2021/01/15 08:02:15;;;;;;;23.23;11.52;;;-4.30;81.00;;;;;;5068990;28;20493;-72
2021/01/15 08:04:41;;;;;;;25.58;11.43;;;-4.30;81.30;;;;;;5066568;28;20079;-71
2021/01/15 08:07:33;;;;;;;23.02;11.07;;;-4.30;81.30;;;;;;5069405;28;20064;-72
2021/01/15 08:09:59;;;;;;;23.38;11.20;;;-4.20;81.50;;;;;;5071335;28;20103;-72
2021/01/15 08:12:25;;;;;;;20.05;11.05;;;-4.10;81.20;;;;;;5066658;28;20124;-74
2021/01/15 08:14:50;;;;;;;20.80;10.75;;;-4.10;81.70;;;;;;5065844;28;20044;-73
2021/01/15 08:17:25;;;;;;;16.40;9.68;;;-4.00;81.30;;;;;;5065376;28;20090;-73
2021/01/15 08:19:51;;;;;;;20.67;11.25;;;-4.00;80.40;;;;;;5068951;28;20025;-73
2021/01/15 08:22:18;;;;;;;23.05;11.18;;;-3.90;80.70;;;;;;5068105;28;20111;-73
2021/01/15 08:24:48;;;;;;;20.80;10.80;;;-3.90;79.90;;;;;;5068697;28;20040;-73
2021/01/15 08:27:18;;;;;;;20.23;10.15;;;-3.80;80.30;;;;;;5068034;28;20556;-73
2021/01/15 08:29:44;;;;;;;17.83;9.00;;;-3.80;80.00;;;;;;5068607;28;20024;-75
2021/01/15 08:32:10;;;;;;;18.13;9.88;;;-3.80;78.60;;;;;;5072168;28;20056;-71
2021/01/15 08:34:37;;;;;;;19.02;9.52;;;-3.80;78.60;;;;;;5061961;28;20113;-74
2021/01/15 08:37:10;;;;;;;18.75;10.05;;;-3.70;78.70;;;;;;5073106;28;20107;-73
2021/01/15 08:39:45;;;;;;;20.42;10.80;;;-3.70;78.60;;;;;;5063035;28;20077;-74
2021/01/15 08:42:12;;;;;;;16.27;9.43;;;-3.70;79.00;;;;;;5069044;28;20472;-73
2021/01/15 08:44:39;;;;;;;20.63;9.32;;;-3.60;79.20;;;;;;5067526;28;20016;-74
2021/01/15 08:47:17;;;;;;;17.85;9.93;;;-3.60;77.70;;;;;;5067320;28;20051;-74
2021/01/15 08:49:54;;;;;;;21.75;9.90;;;-3.50;77.90;;;;;;5064775;28;20115;-74
2021/01/15 08:52:32;;;;;;;18.48;9.48;;;-3.50;77.50;;;;;;5067613;28;20029;-73
2021/01/15 08:55:01;;;;;;;23.58;9.68;;;-3.40;79.00;;;;;;5072981;28;20035;-74
2021/01/15 08:57:28;;;;;;;17.75;10.27;;;-3.30;78.20;;;;;;5063313;28;20037;-74
2021/01/15 08:59:54;;;;;;;23.33;10.15;;;-3.20;77.10;;;;;;5067546;28;20017;-72
2021/01/15 09:02:21;;;;;;;20.70;9.52;;;-3.20;78.00;;;;;;5068931;28;20032;-72
2021/01/15 09:04:48;;;;;;;18.40;10.10;;;-3.20;77.60;;;;;;5068235;28;20029;-73
2021/01/15 09:07:15;;;;;;;18.10;9.68;;;-3.20;76.20;;;;;;5068936;28;20036;-73
2021/01/15 09:09:42;;;;;;;18.65;9.77;;;-3.20;76.70;;;;;;5072610;28;20033;-73
2021/01/15 09:12:09;;;;;;;16.60;9.50;;;-3.20;77.10;;;;;;5069457;28;20544;-74
2021/01/15 09:14:36;;;;;;;18.17;10.15;;;-3.20;76.40;;;;;;5068126;28;20588;-73
2021/01/15 09:17:07;;;;;;;17.88;10.30;;;-3.10;77.10;;;;;;5085911;28;20500;-74
2021/01/15 09:19:34;;;;;;;19.15;9.85;;;-3.10;77.80;;;;;;5068541;28;20108;-73
2021/01/15 09:22:04;;;;;;;18.85;9.10;;;-3.10;76.20;;;;;;5072167;28;20081;-72
2021/01/15 09:24:31;;;;;;;19.73;11.95;;;-3.00;76.20;;;;;;5069155;28;20051;-73
2021/01/15 09:27:04;;;;;;;18.90;10.75;;;-2.90;75.90;;;;;;5064413;28;20017;-73
2021/01/15 09:29:30;;;;;;;20.77;10.07;;;-2.90;75.80;;;;;;5067747;28;20113;-72
2021/01/15 09:31:56;;;;;;;21.33;10.18;;;-2.80;76.30;;;;;;5066125;28;20064;-73
2021/01/15 09:34:23;;;;;;;19.83;10.68;;;-2.90;75.30;;;;;;5068607;28;20036;-72
2021/01/15 09:36:51;;;;;;;18.02;9.88;;;-2.80;74.80;;;;;;5073218;28;20017;-73
2021/01/15 09:39:19;;;;;;;23.40;11.02;;;-2.80;74.20;;;;;;5065667;28;20107;-72
2021/01/15 09:41:47;;;;;;;23.92;12.02;;;-2.90;75.60;;;;;;5069478;28;20096;-72
2021/01/15 09:44:14;;;;;;;22.20;11.75;;;-2.80;75.20;;;;;;5052437;28;20028;-71
2021/01/15 09:46:40;;;;;;;26.98;12.57;;;-2.80;74.70;;;;;;5067888;28;20508;-70
2021/01/15 09:49:06;;;;;;;25.63;12.85;;;-2.70;74.90;;;;;;5069480;28;20013;-71
2021/01/15 09:51:32;;;;;;;30.05;13.38;;;-2.70;74.80;;;;;;5068064;28;20047;-72
2021/01/15 09:53:58;;;;;;;27.25;13.48;;;-2.80;74.40;;;;;;5067339;28;20040;-72
2021/01/15 09:56:35;;;;;;;27.02;12.32;;;-2.80;74.10;;;;;;5067986;28;20073;-72
2021/01/15 09:59:02;;;;;;;27.75;13.00;;;-2.70;75.10;;;;;;5066289;28;20039;-72
2021/01/15 10:01:29;;;;;;;28.38;13.60;;;-2.70;74.40;;;;;;5068412;28;20047;-72
2021/01/15 10:03:57;;;;;;;24.75;13.60;;;-2.60;74.40;;;;;;5069229;28;20028;-72
2021/01/15 10:06:24;;;;;;;25.23;12.95;;;-2.50;74.70;;;;;;5068228;28;20028;-73
2021/01/15 10:08:50;;;;;;;28.80;14.00;;;-2.40;74.90;;;;;;5069589;28;20031;-74
2021/01/15 10:11:20;;;;;;;26.77;15.25;;;-2.40;74.00;;;;;;5068887;28;20095;-74
2021/01/15 10:13:47;;;;;;;29.38;13.98;;;-2.40;74.30;;;;;;5068431;28;20043;-72
2021/01/15 10:16:13;;;;;;;26.92;13.73;;;-2.30;74.10;;;;;;5069704;28;20017;-74
2021/01/15 10:18:39;;;;;;;24.40;13.80;;;-2.40;74.30;;;;;;5068063;28;20123;-74
2021/01/15 10:21:06;;;;;;;25.92;13.50;;;-2.30;73.80;;;;;;5066973;28;20028;-74
2021/01/15 10:23:34;;;;;;;24.17;13.02;;;-2.30;74.60;;;;;;5068545;28;20024;-74
2021/01/15 10:25:59;;;;;;;25.10;13.52;;;-2.20;73.70;;;;;;5067477;28;20429;-74
2021/01/15 10:28:25;;;;;;;29.45;13.85;;;-2.10;74.10;;;;;;5066098;28;20123;-74
2021/01/15 10:30:51;;;;;;;26.90;13.40;;;-2.10;73.40;;;;;;5069801;28;20489;-75
2021/01/15 10:33:16;;;;;;;29.13;13.73;;;-2.10;72.70;;;;;;5066706;28;20045;-74
2021/01/15 10:35:42;;;;;;;22.10;12.10;;;-2.00;73.10;;;;;;5067836;28;20377;-74
2021/01/15 10:38:08;;;;;;;19.60;11.45;;;-2.00;72.60;;;;;;5067346;28;20050;-74
2021/01/15 10:40:33;;;;;;;22.05;12.25;;;-2.00;71.10;;;;;;5069244;28;20029;-74
2021/01/15 10:42:59;;;;;;;22.08;11.43;;;-2.10;70.80;;;;;;5069339;28;20031;-72
2021/01/15 10:45:25;;;;;;;21.75;11.98;;;-2.20;70.20;;;;;;5066830;28;20362;-72
2021/01/15 10:47:50;;;;;;;21.33;11.55;;;-2.20;70.80;;;;;;5065214;28;20028;-75
2021/01/15 10:50:17;;;;;;;24.88;11.90;;;-2.20;70.80;;;;;;5063792;28;20135;-71
2021/01/15 10:52:50;;;;;;;25.90;11.88;;;-2.10;71.30;;;;;;5069382;28;20043;-72
2021/01/15 10:55:15;;;;;;;25.65;13.23;;;-2.10;70.80;;;;;;5068535;28;20595;-71
2021/01/15 10:57:41;;;;;;;20.63;10.98;;;-2.00;70.90;;;;;;5067601;28;20052;-74
2021/01/15 11:00:07;;;;;;;20.33;9.80;;;-2.10;69.50;;;;;;5066187;28;20074;-70
2021/01/15 11:02:33;;;;;;;19.83;11.35;;;-2.00;70.60;;;;;;5067359;28;20020;-71
2021/01/15 11:04:58;;;;;;;24.42;11.88;;;-2.00;69.90;;;;;;5067781;28;20074;-72
2021/01/15 11:07:24;;;;;;;23.45;11.50;;;-2.00;70.40;;;;;;5068855;28;20081;-72
2021/01/15 11:09:50;;;;;;;22.73;12.02;;;-1.90;69.30;;;;;;5070047;28;20025;-72
2021/01/15 11:12:15;;;;;;;22.75;11.43;;;-1.90;70.00;;;;;;5067664;28;20034;-72
2021/01/15 11:14:41;;;;;;;18.90;10.65;;;-2.00;70.10;;;;;;5067276;28;20040;-71
2021/01/15 11:17:07;;;;;;;27.83;13.10;;;-1.80;70.50;;;;;;5067235;28;20039;-71
2021/01/15 11:19:32;;;;;;;23.85;12.40;;;-1.80;70.30;;;;;;5066782;28;20037;-71
2021/01/15 11:21:59;;;;;;;26.08;11.05;;;-1.70;69.90;;;;;;5067899;28;20051;-73
2021/01/15 11:24:25;;;;;;;21.98;11.45;;;-1.80;69.20;;;;;;5065186;28;20464;-70
2021/01/15 11:26:51;;;;;;;18.52;10.80;;;-1.80;68.90;;;;;;5066536;28;20027;-71
2021/01/15 11:29:16;;;;;;;21.65;10.02;;;-1.80;69.00;;;;;;5064872;28;20561;-71
2021/01/15 11:31:43;;;;;;;19.25;8.95;;;-1.80;70.20;;;;;;5067650;28;20025;-72
2021/01/15 11:34:09;;;;;;;19.23;9.27;;;-1.80;67.90;;;;;;5069317;28;20043;-72
2021/01/15 11:36:35;;;;;;;16.30;8.90;;;-1.80;68.40;;;;;;5064000;28;20028;-72
2021/01/15 11:39:11;;;;;;;16.63;9.43;;;-1.80;67.50;;;;;;5063973;28;20025;-71
2021/01/15 11:41:37;;;;;;;20.27;8.15;;;-1.80;68.60;;;;;;5063079;28;20424;-73
2021/01/15 11:44:14;;;;;;;15.60;8.18;;;-1.90;66.80;;;;;;5065859;28;20027;-71
2021/01/15 11:46:39;;;;;;;19.10;8.95;;;-1.90;66.60;;;;;;5067496;28;20036;-75
2021/01/15 11:49:05;;;;;;;18.00;8.60;;;-1.90;68.30;;;;;;5064967;28;20177;-73
2021/01/15 11:51:31;;;;;;;18.55;8.38;;;-1.80;68.00;;;;;;5067720;28;20499;-73
2021/01/15 11:53:58;;;;;;;16.25;9.50;;;-1.90;67.20;;;;;;5068437;28;20672;-73
2021/01/15 11:56:23;;;;;;;15.70;8.05;;;-1.90;67.70;;;;;;5066540;28;20025;-72
2021/01/15 11:58:49;;;;;;;19.25;9.23;;;-1.90;68.70;;;;;;5067928;28;20041;-72
2021/01/15 12:01:16;;;;;;;16.65;8.63;;;-1.90;69.90;;;;;;5068458;28;20115;-71
2021/01/15 12:03:42;;;;;;;21.50;9.68;;;-2.00;70.80;;;;;;5069009;28;20025;-73
2021/01/15 12:06:08;;;;;;;17.30;9.68;;;-2.10;70.20;;;;;;5070648;28;20555;-72
2021/01/15 12:08:41;;;;;;;18.23;9.65;;;-2.10;71.80;;;;;;5069128;28;20086;-74
2021/01/15 12:11:07;;;;;;;16.75;9.93;;;-2.00;72.90;;;;;;5069827;28;20029;-73
2021/01/15 12:13:36;;;;;;;23.00;9.63;;;-1.90;72.30;;;;;;5067478;28;20029;-73
2021/01/15 12:16:02;;;;;;;25.25;10.00;;;-1.90;72.20;;;;;;5074050;28;20036;-73
2021/01/15 12:18:28;;;;;;;19.02;9.27;;;-1.90;71.40;;;;;;5072307;28;20544;-73
2021/01/15 12:20:55;;;;;;;20.50;11.45;;;-1.90;71.50;;;;;;5086148;28;20029;-73
2021/01/15 12:23:21;;;;;;;19.33;10.70;;;-1.90;72.20;;;;;;5073425;28;20082;-73
2021/01/15 12:25:47;;;;;;;19.40;10.25;;;-1.90;71.90;;;;;;5070320;28;20500;-73
2021/01/15 12:28:15;;;;;;;22.65;11.13;;;-1.90;72.90;;;;;;5074072;28;20077;-73
2021/01/15 12:30:42;;;;;;;19.58;10.35;;;-1.90;73.80;;;;;;5074089;28;20025;-73
2021/01/15 12:33:09;;;;;;;25.77;11.10;;;-1.90;74.70;;;;;;5070408;28;20048;-73
2021/01/15 12:35:36;;;;;;;24.27;11.52;;;-2.00;77.00;;;;;;5069344;28;20040;-73
2021/01/15 12:38:13;;;;;;;25.92;11.05;;;-2.00;79.60;;;;;;5072648;28;20028;-73
2021/01/15 12:40:39;;;;;;;18.75;11.00;;;-2.10;79.10;;;;;;5067090;28;20111;-73
2021/01/15 12:43:09;;;;;;;23.48;12.57;;;-2.10;79.10;;;;;;5073662;28;20521;-74
2021/01/15 12:45:40;;;;;;;26.33;12.57;;;-2.20;79.80;;;;;;5069827;28;20056;-74
2021/01/15 12:48:06;;;;;;;29.70;13.95;;;-2.20;80.70;;;;;;5067303;28;20128;-74
2021/01/15 12:50:32;;;;;;;26.80;12.27;;;-2.30;80.70;;;;;;5068988;28;20050;-73
2021/01/15 12:52:58;;;;;;;27.33;13.27;;;-2.40;83.70;;;;;;5065112;28;20029;-73
2021/01/15 12:55:25;;;;;;;28.30;14.40;;;-2.40;86.30;;;;;;5067421;28;20082;-73
2021/01/15 12:57:52;;;;;;;30.52;14.05;;;-2.50;84.00;;;;;;5072608;28;20059;-74
2021/01/15 13:00:18;;;;;;;30.00;15.10;;;-2.40;85.10;;;;;;5071096;28;20044;-73